createdAt,value
2022-10-26T00:00:25.973Z,8.50
2022-10-26T00:01:26.097Z,8.00
2022-10-26T00:02:26.045Z,7.00
2022-10-26T00:03:25.935Z,7.30
2022-10-26T00:04:25.936Z,7.20
2022-10-26T00:05:25.907Z,7.50
2022-10-26T00:06:25.893Z,6.90
2022-10-26T00:07:25.892Z,6.90
2022-10-26T00:08:25.878Z,7.50
2022-10-26T00:09:25.883Z,6.70
2022-10-26T00:10:28.274Z,8.00
2022-10-26T00:11:26.844Z,6.80
2022-10-26T00:12:25.846Z,7.50
2022-10-26T00:13:25.823Z,7.50
2022-10-26T00:14:25.828Z,6.70
2022-10-26T00:15:25.800Z,7.00
2022-10-26T00:16:25.796Z,6.90
2022-10-26T00:17:25.779Z,6.90
2022-10-26T00:18:25.770Z,7.10
2022-10-26T00:19:25.783Z,6.90
2022-10-26T00:20:25.760Z,6.50
2022-10-26T00:21:25.746Z,6.70
2022-10-26T00:22:25.751Z,6.90
2022-10-26T00:23:25.761Z,7.20
2022-10-26T00:24:25.742Z,7.40
2022-10-26T00:25:25.710Z,6.80
2022-10-26T00:26:25.711Z,6.50
2022-10-26T00:27:25.684Z,6.90
2022-10-26T00:28:25.702Z,6.90
2022-10-26T00:29:25.684Z,7.00
2022-10-26T00:30:25.656Z,6.70
2022-10-26T00:31:25.671Z,6.60
2022-10-26T00:32:25.646Z,6.60
2022-10-26T00:33:25.634Z,6.70
2022-10-26T00:34:25.631Z,6.80
2022-10-26T00:35:44.637Z,6.80
2022-10-26T00:36:27.606Z,7.40
2022-10-26T00:37:25.589Z,7.20
2022-10-26T00:38:25.585Z,7.00
2022-10-26T00:39:25.597Z,6.80
2022-10-26T00:40:25.562Z,7.60
2022-10-26T00:41:25.540Z,7.40
2022-10-26T00:42:25.547Z,8.00
2022-10-26T00:43:25.532Z,7.40
2022-10-26T00:44:25.539Z,7.70
2022-10-26T00:45:25.585Z,7.90
2022-10-26T00:46:25.503Z,7.70
2022-10-26T00:47:25.487Z,7.20
2022-10-26T00:48:25.479Z,7.50
2022-10-26T00:49:25.492Z,7.80
2022-10-26T00:50:25.453Z,7.20
2022-10-26T00:51:25.455Z,7.80
2022-10-26T00:52:25.437Z,8.50
2022-10-26T00:53:25.426Z,7.70
2022-10-26T00:54:25.440Z,7.70
2022-10-26T00:55:25.422Z,7.60
2022-10-26T00:56:25.390Z,7.60
2022-10-26T00:57:25.408Z,8.30
2022-10-26T00:58:25.375Z,8.10
2022-10-26T00:59:25.383Z,8.60
2022-10-26T01:00:25.348Z,8.60
2022-10-26T01:01:25.389Z,8.70
2022-10-26T01:02:25.333Z,9.00
2022-10-26T01:03:25.567Z,8.40
2022-10-26T01:04:25.319Z,8.40
2022-10-26T01:05:25.298Z,8.30
2022-10-26T01:06:25.295Z,8.80
2022-10-26T01:07:25.282Z,9.00
2022-10-26T01:08:25.265Z,9.60
2022-10-26T01:09:25.286Z,9.20
2022-10-26T01:10:25.251Z,8.70
2022-10-26T01:11:25.238Z,8.80
2022-10-26T01:12:25.225Z,9.50
2022-10-26T01:13:25.221Z,9.20
2022-10-26T01:14:25.224Z,8.30
2022-10-26T01:15:25.209Z,9.30
2022-10-26T01:16:25.201Z,9.50
2022-10-26T01:17:25.177Z,9.40
2022-10-26T01:18:25.170Z,8.60
2022-10-26T01:19:25.183Z,8.60
2022-10-26T01:20:25.141Z,8.80
2022-10-26T01:21:25.142Z,8.40
2022-10-26T01:22:25.128Z,7.90
2022-10-26T01:23:25.117Z,8.30
2022-10-26T01:24:25.125Z,8.50
2022-10-26T01:25:25.102Z,8.20
2022-10-26T01:26:25.092Z,8.70
2022-10-26T01:27:25.085Z,15.10
2022-10-26T01:28:25.074Z,15.20
2022-10-26T01:29:25.077Z,19.10
2022-10-26T01:30:25.077Z,19.80
2022-10-26T01:31:25.049Z,21.40
2022-10-26T01:32:25.033Z,26.40
2022-10-26T01:33:25.029Z,27.50
2022-10-26T01:34:25.036Z,26.70
2022-10-26T01:35:25.008Z,27.20
2022-10-26T01:36:25.065Z,28.90
2022-10-26T01:37:24.991Z,27.20
2022-10-26T01:38:24.978Z,32.50
2022-10-26T01:39:24.990Z,32.40
2022-10-26T01:40:24.963Z,33.60
2022-10-26T01:41:24.965Z,32.30
2022-10-26T01:42:24.930Z,29.70
2022-10-26T01:43:24.916Z,27.30
2022-10-26T01:44:24.935Z,22.80
2022-10-26T01:45:24.901Z,19.70
2022-10-26T01:46:24.899Z,18.30
2022-10-26T01:47:24.886Z,16.30
2022-10-26T01:48:24.869Z,15.00
2022-10-26T01:49:24.880Z,16.00
2022-10-26T01:50:24.848Z,16.10
2022-10-26T01:51:24.831Z,12.20
2022-10-26T01:52:24.830Z,11.40
2022-10-26T01:53:24.823Z,10.60
2022-10-26T01:54:24.867Z,12.40
2022-10-26T01:55:24.805Z,13.50
2022-10-26T01:56:24.930Z,17.60
2022-10-26T01:57:24.776Z,16.90
2022-10-26T01:58:24.769Z,22.40
2022-10-26T01:59:24.783Z,23.90
2022-10-26T02:00:24.755Z,23.00
2022-10-26T02:01:24.809Z,23.20
2022-10-26T02:02:24.728Z,23.80
2022-10-26T02:03:24.750Z,23.60
2022-10-26T02:05:25.698Z,13.60
2022-10-26T02:06:24.687Z,12.80
2022-10-26T02:07:24.675Z,10.80
2022-10-26T02:08:24.664Z,9.90
2022-10-26T02:09:24.674Z,10.30
2022-10-26T02:10:24.642Z,10.00
2022-10-26T02:11:24.675Z,9.50
2022-10-26T02:12:24.628Z,9.60
2022-10-26T02:13:56.515Z,9.10
2022-10-26T02:14:24.627Z,8.80
2022-10-26T02:15:24.600Z,9.20
2022-10-26T02:16:24.590Z,8.70
2022-10-26T02:17:24.581Z,8.50
2022-10-26T02:18:24.572Z,8.40
2022-10-26T02:19:24.581Z,9.00
2022-10-26T02:20:24.552Z,9.10
2022-10-26T02:21:24.536Z,8.60
2022-10-26T02:22:25.527Z,8.50
2022-10-26T02:23:24.515Z,8.40
2022-10-26T02:24:24.525Z,8.60
2022-10-26T02:25:24.502Z,9.30
2022-10-26T02:26:24.510Z,8.70
2022-10-26T02:27:24.479Z,8.80
2022-10-26T02:28:24.471Z,8.90
2022-10-26T02:29:24.494Z,9.50
2022-10-26T02:30:24.452Z,9.60
2022-10-26T02:31:24.439Z,9.10
2022-10-26T02:32:24.435Z,9.90
2022-10-26T02:33:24.423Z,10.30
2022-10-26T02:34:24.427Z,10.20
2022-10-26T02:35:24.397Z,10.50
2022-10-26T02:36:24.394Z,9.90
2022-10-26T02:37:24.379Z,10.20
2022-10-26T02:38:24.412Z,9.90
2022-10-26T02:39:24.385Z,9.80
2022-10-26T02:40:24.350Z,9.30
2022-10-26T02:41:24.335Z,9.80
2022-10-26T02:42:24.331Z,9.50
2022-10-26T02:43:24.352Z,9.20
2022-10-26T02:44:24.342Z,9.00
2022-10-26T02:45:24.298Z,9.10
2022-10-26T02:46:24.290Z,8.60
2022-10-26T02:47:24.279Z,9.20
2022-10-26T02:48:24.263Z,8.70
2022-10-26T02:49:24.271Z,9.00
2022-10-26T02:50:24.247Z,8.70
2022-10-26T02:51:24.237Z,8.40
2022-10-26T02:52:24.231Z,8.90
2022-10-26T02:53:24.216Z,8.40
2022-10-26T02:54:24.342Z,7.80
2022-10-26T02:55:24.192Z,8.30
2022-10-26T02:56:24.203Z,8.40
2022-10-26T02:57:24.187Z,8.40
2022-10-26T02:58:24.167Z,8.30
2022-10-26T02:59:24.177Z,8.60
2022-10-26T03:00:24.153Z,8.60
2022-10-26T03:01:24.181Z,8.60
2022-10-26T03:02:24.126Z,8.50
2022-10-26T03:03:24.104Z,8.00
2022-10-26T03:04:24.235Z,8.20
2022-10-26T03:05:24.100Z,9.00
2022-10-26T03:06:24.093Z,10.50
2022-10-26T03:07:24.088Z,11.00
2022-10-26T03:08:24.152Z,11.20
2022-10-26T03:09:25.527Z,14.70
2022-10-26T03:10:24.048Z,17.40
2022-10-26T03:11:24.049Z,17.40
2022-10-26T03:12:24.038Z,17.80
2022-10-26T03:13:24.026Z,19.50
2022-10-26T03:14:24.032Z,22.80
2022-10-26T03:15:24.001Z,21.90
2022-10-26T03:16:23.987Z,25.20
2022-10-26T03:17:23.984Z,26.80
2022-10-26T03:18:23.972Z,25.60
2022-10-26T03:19:23.984Z,24.60
2022-10-26T03:20:23.952Z,23.00
2022-10-26T03:21:23.944Z,22.60
2022-10-26T03:22:23.930Z,22.60
2022-10-26T03:23:23.915Z,22.70
2022-10-26T03:24:23.909Z,20.00
2022-10-26T03:25:23.918Z,18.70
2022-10-26T03:26:23.888Z,14.20
2022-10-26T03:27:23.877Z,11.70
2022-10-26T03:28:23.863Z,11.00
2022-10-26T03:29:23.853Z,10.10
2022-10-26T03:30:23.862Z,10.00
2022-10-26T03:31:23.824Z,10.50
2022-10-26T03:32:23.833Z,9.50
2022-10-26T03:33:27.008Z,8.80
2022-10-26T03:34:23.806Z,8.70
2022-10-26T03:35:23.813Z,9.00
2022-10-26T03:36:23.789Z,10.40
2022-10-26T03:37:23.782Z,11.30
2022-10-26T03:38:23.775Z,11.20
2022-10-26T03:39:23.753Z,11.50
2022-10-26T03:40:23.761Z,10.20
2022-10-26T03:41:23.734Z,7.90
2022-10-26T03:42:23.729Z,8.40
2022-10-26T03:43:23.720Z,7.30
2022-10-26T03:44:23.717Z,7.50
2022-10-26T03:45:23.724Z,7.10
2022-10-26T03:46:23.686Z,7.30
2022-10-26T03:47:23.683Z,9.10
2022-10-26T03:48:23.675Z,7.80
2022-10-26T03:49:23.661Z,7.70
2022-10-26T03:50:23.676Z,8.70
2022-10-26T03:51:23.634Z,8.50
2022-10-26T03:52:23.628Z,7.80
2022-10-26T03:53:23.614Z,8.00
2022-10-26T03:54:23.608Z,7.50
2022-10-26T03:55:23.612Z,7.40
2022-10-26T03:56:23.591Z,7.50
2022-10-26T03:57:23.570Z,7.60
2022-10-26T03:58:23.563Z,7.70
2022-10-26T03:59:23.548Z,7.60
2022-10-26T04:00:23.563Z,7.80
2022-10-26T04:01:23.578Z,7.70
2022-10-26T04:02:23.580Z,7.40
2022-10-26T04:03:23.520Z,7.30
2022-10-26T04:04:23.582Z,8.10
2022-10-26T04:05:23.499Z,7.70
2022-10-26T04:06:24.484Z,8.30
2022-10-26T04:07:23.469Z,8.30
2022-10-26T04:08:23.467Z,8.20
2022-10-26T04:09:23.465Z,9.20
2022-10-26T04:10:23.479Z,9.10
2022-10-26T04:11:23.426Z,8.70
2022-10-26T04:12:23.433Z,9.10
2022-10-26T04:13:23.418Z,8.20
2022-10-26T04:14:23.408Z,9.40
2022-10-26T04:15:23.421Z,8.70
2022-10-26T04:16:23.395Z,8.90
2022-10-26T04:17:23.391Z,9.30
2022-10-26T04:18:23.369Z,9.40
2022-10-26T04:19:23.354Z,9.50
2022-10-26T04:20:23.373Z,9.20
2022-10-26T04:21:23.346Z,9.90
2022-10-26T04:22:23.351Z,9.80
2022-10-26T04:24:23.313Z,10.00
2022-10-26T04:25:23.321Z,10.20
2022-10-26T04:26:23.292Z,10.10
2022-10-26T04:27:23.274Z,9.50
2022-10-26T04:28:23.268Z,8.80
2022-10-26T04:29:23.265Z,10.50
2022-10-26T04:30:23.273Z,9.50
2022-10-26T04:31:23.225Z,9.70
2022-10-26T04:32:23.227Z,10.50
2022-10-26T04:33:23.213Z,10.00
2022-10-26T04:34:23.210Z,9.30
2022-10-26T04:35:23.213Z,9.30
2022-10-26T04:36:23.185Z,9.70
2022-10-26T04:37:23.175Z,10.40
2022-10-26T04:38:23.173Z,10.20
2022-10-26T04:39:23.142Z,10.30
2022-10-26T04:40:23.169Z,10.40
2022-10-26T04:41:23.130Z,10.10
2022-10-26T04:42:23.128Z,9.90
2022-10-26T04:43:23.115Z,10.00
2022-10-26T04:44:23.107Z,10.50
2022-10-26T04:45:23.116Z,9.80
2022-10-26T04:46:23.090Z,10.10
2022-10-26T04:47:23.066Z,9.90
2022-10-26T04:48:23.062Z,10.10
2022-10-26T04:49:23.056Z,10.40
2022-10-26T04:50:26.187Z,10.20
2022-10-26T04:51:23.038Z,9.90
2022-10-26T04:52:23.031Z,9.90
2022-10-26T04:53:23.018Z,10.10
2022-10-26T04:54:23.012Z,10.60
2022-10-26T04:55:23.010Z,11.20
2022-10-26T04:56:22.987Z,10.60
2022-10-26T04:57:22.981Z,9.90
2022-10-26T04:58:22.963Z,9.90
2022-10-26T04:59:22.952Z,10.70
2022-10-26T05:00:22.962Z,10.80
2022-10-26T05:01:23.016Z,10.90
2022-10-26T05:02:22.987Z,10.60
2022-10-26T05:03:22.911Z,10.10
2022-10-26T05:04:22.899Z,10.50
2022-10-26T05:05:22.902Z,10.60
2022-10-26T05:06:22.888Z,10.10
2022-10-26T05:07:22.866Z,9.90
2022-10-26T05:08:22.860Z,10.20
2022-10-26T05:09:22.845Z,10.90
2022-10-26T05:10:22.848Z,10.90
2022-10-26T05:11:22.826Z,10.80
2022-10-26T05:12:22.812Z,10.40
2022-10-26T05:13:22.914Z,11.10
2022-10-26T05:14:22.782Z,11.10
2022-10-26T05:15:22.802Z,11.10
2022-10-26T05:16:22.782Z,10.80
2022-10-26T05:17:22.771Z,11.70
2022-10-26T05:18:22.748Z,11.50
2022-10-26T05:19:22.745Z,11.60
2022-10-26T05:20:22.741Z,11.60
2022-10-26T05:21:22.720Z,11.20
2022-10-26T05:22:22.706Z,11.60
2022-10-26T05:23:22.701Z,11.20
2022-10-26T05:24:22.687Z,11.50
2022-10-26T05:25:22.705Z,11.40
2022-10-26T05:26:22.679Z,10.60
2022-10-26T05:27:22.678Z,10.30
2022-10-26T05:28:22.647Z,11.00
2022-10-26T05:29:22.665Z,10.90
2022-10-26T05:30:22.645Z,10.30
2022-10-26T05:31:23.621Z,10.00
2022-10-26T05:32:22.619Z,9.80
2022-10-26T05:33:22.610Z,9.50
2022-10-26T05:34:22.596Z,9.50
2022-10-26T05:35:22.608Z,9.30
2022-10-26T05:36:22.582Z,8.80
2022-10-26T05:37:23.563Z,9.10
2022-10-26T05:38:22.601Z,9.40
2022-10-26T05:39:22.542Z,11.00
2022-10-26T05:40:22.550Z,11.40
2022-10-26T05:41:22.522Z,12.00
2022-10-26T05:42:22.511Z,10.50
2022-10-26T05:43:22.498Z,9.70
2022-10-26T05:44:22.493Z,9.70
2022-10-26T05:45:22.512Z,9.50
2022-10-26T05:46:23.470Z,9.30
2022-10-26T05:47:22.469Z,8.70
2022-10-26T05:48:22.467Z,8.60
2022-10-26T05:49:22.459Z,8.10
2022-10-26T05:50:22.452Z,7.70
2022-10-26T05:51:22.434Z,7.30
2022-10-26T05:52:22.428Z,7.30
2022-10-26T05:53:22.419Z,7.10
2022-10-26T05:54:22.406Z,7.00
2022-10-26T05:55:22.413Z,6.70
2022-10-26T05:56:22.387Z,7.20
2022-10-26T05:57:22.370Z,6.90
2022-10-26T05:58:22.375Z,7.30
2022-10-26T05:59:22.360Z,7.20
2022-10-26T06:00:22.374Z,7.50
2022-10-26T06:01:22.446Z,6.80
2022-10-26T06:02:22.426Z,6.80
2022-10-26T06:03:22.340Z,6.80
2022-10-26T06:04:22.299Z,7.50
2022-10-26T06:05:22.352Z,7.50
2022-10-26T06:06:22.285Z,7.00
2022-10-26T06:07:22.274Z,7.50
2022-10-26T06:08:22.273Z,7.80
2022-10-26T06:09:22.254Z,7.60
2022-10-26T06:10:22.271Z,7.00
2022-10-26T06:11:22.235Z,7.10
2022-10-26T06:12:22.253Z,7.60
2022-10-26T06:13:22.226Z,7.10
2022-10-26T06:14:22.209Z,7.60
2022-10-26T06:15:22.223Z,7.10
2022-10-26T06:16:22.189Z,6.90
2022-10-26T06:17:22.180Z,7.00
2022-10-26T06:18:22.179Z,7.10
2022-10-26T06:19:22.151Z,7.20
2022-10-26T06:20:22.198Z,7.20
2022-10-26T06:21:22.136Z,7.30
2022-10-26T06:22:22.135Z,7.10
2022-10-26T06:23:22.117Z,7.10
2022-10-26T06:24:22.186Z,6.90
2022-10-26T06:25:22.106Z,7.60
2022-10-26T06:26:22.095Z,6.60
2022-10-26T06:27:22.081Z,6.80
2022-10-26T06:28:22.158Z,6.80
2022-10-26T06:29:22.056Z,6.60
2022-10-26T06:30:22.066Z,7.00
2022-10-26T06:31:22.124Z,7.00
2022-10-26T06:32:22.033Z,6.50
2022-10-26T06:33:29.448Z,6.80
2022-10-26T06:34:24.014Z,6.50
2022-10-26T06:35:22.022Z,6.50
2022-10-26T06:36:21.988Z,6.80
2022-10-26T06:37:21.965Z,6.70
2022-10-26T06:38:21.960Z,6.60
2022-10-26T06:39:21.959Z,6.40
2022-10-26T06:40:21.979Z,6.40
2022-10-26T06:41:21.921Z,5.80
2022-10-26T06:42:21.949Z,5.90
2022-10-26T06:43:21.920Z,5.90
2022-10-26T06:44:21.903Z,6.10
2022-10-26T06:45:21.907Z,6.30
2022-10-26T06:46:21.883Z,6.20
2022-10-26T06:47:23.554Z,6.40
2022-10-26T06:48:21.861Z,6.00
2022-10-26T06:49:21.855Z,6.20
2022-10-26T06:50:21.866Z,6.10
2022-10-26T06:51:21.829Z,6.60
2022-10-26T06:52:21.822Z,5.70
2022-10-26T06:53:21.820Z,6.00
2022-10-26T06:54:21.802Z,5.80
2022-10-26T06:55:21.817Z,6.20
2022-10-26T06:56:21.790Z,5.90
2022-10-26T06:57:21.777Z,6.00
2022-10-26T06:58:21.772Z,5.70
2022-10-26T06:59:21.760Z,5.70
2022-10-26T07:00:21.828Z,6.10
2022-10-26T07:01:21.858Z,5.90
2022-10-26T07:02:21.816Z,5.70
2022-10-26T07:03:21.727Z,5.50
2022-10-26T07:04:21.713Z,5.90
2022-10-26T07:05:21.756Z,5.40
2022-10-26T07:06:21.692Z,5.70
2022-10-26T07:07:21.674Z,6.20
2022-10-26T07:08:21.672Z,5.30
2022-10-26T07:09:21.667Z,5.40
2022-10-26T07:10:21.674Z,5.80
2022-10-26T07:11:21.636Z,5.60
2022-10-26T07:12:21.632Z,5.80
2022-10-26T07:13:21.630Z,5.50
2022-10-26T07:14:21.607Z,6.00
2022-10-26T07:15:21.611Z,5.50
2022-10-26T07:16:21.583Z,5.80
2022-10-26T07:17:21.571Z,5.70
2022-10-26T07:18:21.561Z,5.60
2022-10-26T07:19:21.555Z,5.70
2022-10-26T07:20:21.570Z,5.60
2022-10-26T07:21:21.535Z,6.00
2022-10-26T07:22:21.528Z,6.20
2022-10-26T07:23:21.562Z,6.50
2022-10-26T07:24:21.508Z,7.10
2022-10-26T07:25:21.508Z,7.70
2022-10-26T07:26:21.486Z,7.10
2022-10-26T07:27:21.473Z,6.10
2022-10-26T07:28:21.469Z,6.20
2022-10-26T07:29:21.449Z,7.10
2022-10-26T07:30:21.485Z,7.20
2022-10-26T07:31:21.430Z,7.10
2022-10-26T07:32:21.423Z,6.30
2022-10-26T07:33:21.401Z,5.40
2022-10-26T07:34:21.403Z,5.40
2022-10-26T07:35:21.427Z,5.40
2022-10-26T07:36:21.384Z,5.50
2022-10-26T07:37:21.377Z,4.90
2022-10-26T07:38:21.363Z,5.20
2022-10-26T07:39:21.389Z,5.20
2022-10-26T07:41:21.333Z,4.80
2022-10-26T07:42:21.351Z,4.90
2022-10-26T07:43:21.319Z,4.80
2022-10-26T07:44:21.310Z,5.00
2022-10-26T07:45:21.313Z,4.80
2022-10-26T07:46:21.289Z,5.10
2022-10-26T07:47:21.273Z,4.90
2022-10-26T07:48:21.255Z,4.80
2022-10-26T07:49:23.733Z,5.40
2022-10-26T07:50:21.264Z,5.40
2022-10-26T07:51:21.260Z,5.50
2022-10-26T07:52:21.218Z,6.10
2022-10-26T07:53:26.728Z,6.50
2022-10-26T07:54:22.199Z,6.30
2022-10-26T07:55:21.215Z,6.70
2022-10-26T07:56:21.181Z,6.70
2022-10-26T07:57:21.158Z,6.70
2022-10-26T07:58:21.159Z,6.40
2022-10-26T07:59:21.147Z,6.80
2022-10-26T08:00:21.159Z,6.60
2022-10-26T08:01:21.193Z,7.00
2022-10-26T08:02:21.118Z,6.10
2022-10-26T08:03:21.104Z,6.20
2022-10-26T08:04:21.095Z,6.20
2022-10-26T08:05:21.156Z,6.10
2022-10-26T08:06:21.079Z,6.90
2022-10-26T08:07:21.072Z,6.70
2022-10-26T08:08:21.054Z,6.60
2022-10-26T08:09:21.028Z,6.30
2022-10-26T08:10:21.104Z,5.90
2022-10-26T08:11:21.014Z,5.90
2022-10-26T08:12:21.007Z,5.90
2022-10-26T08:13:20.987Z,6.10
2022-10-26T08:14:46.814Z,5.80
2022-10-26T08:15:20.985Z,6.40
2022-10-26T08:16:20.965Z,6.00
2022-10-26T08:17:20.956Z,5.90
2022-10-26T08:18:20.941Z,6.10
2022-10-26T08:19:20.927Z,5.70
2022-10-26T08:20:21.059Z,5.90
2022-10-26T08:21:35.747Z,6.40
2022-10-26T08:22:22.900Z,6.30
2022-10-26T08:23:20.888Z,6.30
2022-10-26T08:24:20.883Z,5.90
2022-10-26T08:25:21.546Z,5.90
2022-10-26T08:26:20.862Z,5.90
2022-10-26T08:27:20.859Z,5.70
2022-10-26T08:28:20.836Z,5.30
2022-10-26T08:29:20.841Z,5.10
2022-10-26T08:30:21.071Z,4.50
2022-10-26T08:31:20.831Z,4.30
2022-10-26T08:32:20.810Z,3.90
2022-10-26T08:33:20.803Z,4.10
2022-10-26T08:34:20.786Z,3.80
2022-10-26T08:35:20.799Z,4.80
2022-10-26T08:36:20.768Z,4.70
2022-10-26T08:37:20.748Z,5.40
2022-10-26T08:38:20.748Z,6.60
2022-10-26T08:39:20.734Z,5.50
2022-10-26T08:40:20.781Z,5.70
2022-10-26T08:41:20.707Z,5.30
2022-10-26T08:42:20.703Z,5.00
2022-10-26T08:43:20.677Z,5.30
2022-10-26T08:44:20.680Z,4.90
2022-10-26T08:45:23.241Z,5.50
2022-10-26T08:46:21.667Z,4.90
2022-10-26T08:47:20.658Z,4.40
2022-10-26T08:48:20.641Z,4.30
2022-10-26T08:49:20.643Z,4.20
2022-10-26T08:50:20.703Z,4.40
2022-10-26T08:51:20.618Z,4.10
2022-10-26T08:52:20.612Z,4.40
2022-10-26T08:53:20.607Z,4.70
2022-10-26T08:54:20.623Z,4.70
2022-10-26T08:55:20.599Z,4.40
2022-10-26T08:56:20.579Z,4.60
2022-10-26T08:57:20.566Z,4.70
2022-10-26T08:58:20.582Z,4.90
2022-10-26T08:59:20.559Z,5.10
2022-10-26T09:00:20.571Z,4.90
2022-10-26T09:01:20.602Z,4.40
2022-10-26T09:02:20.518Z,4.30
2022-10-26T09:03:20.495Z,4.50
2022-10-26T09:04:20.497Z,4.30
2022-10-26T09:05:20.507Z,4.10
2022-10-26T09:06:20.481Z,3.30
2022-10-26T09:07:20.456Z,3.70
2022-10-26T09:08:20.452Z,3.30
2022-10-26T09:09:20.444Z,3.30
2022-10-26T09:10:20.516Z,3.30
2022-10-26T09:11:20.419Z,3.20
2022-10-26T09:12:20.414Z,3.40
2022-10-26T09:13:20.410Z,3.50
2022-10-26T09:14:20.393Z,3.00
2022-10-26T09:15:20.395Z,3.00
2022-10-26T09:16:20.376Z,3.40
2022-10-26T09:17:20.364Z,3.30
2022-10-26T09:18:20.355Z,3.80
2022-10-26T09:19:20.329Z,3.50
2022-10-26T09:20:20.358Z,3.80
2022-10-26T09:21:20.315Z,4.10
2022-10-26T09:22:20.313Z,3.70
2022-10-26T09:23:20.293Z,3.80
2022-10-26T09:24:20.288Z,4.00
2022-10-26T09:25:20.300Z,3.80
2022-10-26T09:26:20.282Z,3.80
2022-10-26T09:27:20.259Z,3.60
2022-10-26T09:28:20.251Z,3.70
2022-10-26T09:29:20.248Z,3.80
2022-10-26T09:30:20.261Z,3.60
2022-10-26T09:31:20.217Z,3.80
2022-10-26T09:32:20.208Z,3.60
2022-10-26T09:33:20.201Z,3.60
2022-10-26T09:34:20.185Z,3.80
2022-10-26T09:35:20.227Z,4.00
2022-10-26T09:36:20.164Z,4.20
2022-10-26T09:37:20.160Z,4.10
2022-10-26T09:38:20.168Z,4.10
2022-10-26T09:39:20.142Z,4.00
2022-10-26T09:40:20.142Z,3.60
2022-10-26T09:41:20.112Z,3.40
2022-10-26T09:42:20.107Z,3.20
2022-10-26T09:43:20.097Z,3.30
2022-10-26T09:44:20.091Z,3.80
2022-10-26T09:45:20.097Z,3.50
2022-10-26T09:46:20.060Z,3.20
2022-10-26T09:47:20.062Z,3.40
2022-10-26T09:48:21.044Z,3.50
2022-10-26T09:49:20.038Z,3.50
2022-10-26T09:50:20.043Z,3.60
2022-10-26T09:51:20.015Z,3.90
2022-10-26T09:52:20.009Z,3.40
2022-10-26T09:53:20.008Z,3.60
2022-10-26T09:54:19.980Z,3.60
2022-10-26T09:55:19.989Z,3.60
2022-10-26T09:56:19.959Z,3.40
2022-10-26T09:57:19.958Z,3.50
2022-10-26T09:58:19.946Z,3.60
2022-10-26T09:59:19.919Z,3.40
2022-10-26T10:00:20.078Z,3.50
2022-10-26T10:01:20.006Z,3.60
2022-10-26T10:02:19.962Z,3.60
2022-10-26T10:03:19.938Z,3.70
2022-10-26T10:04:19.883Z,3.50
2022-10-26T10:05:27.534Z,3.80
2022-10-26T10:06:21.849Z,3.60
2022-10-26T10:07:20.844Z,3.70
2022-10-26T10:08:19.831Z,3.60
2022-10-26T10:09:19.828Z,3.70
2022-10-26T10:10:19.834Z,3.50
2022-10-26T10:11:19.837Z,3.90
2022-10-26T10:12:19.791Z,4.10
2022-10-26T10:13:19.790Z,3.70
2022-10-26T10:14:19.778Z,3.90
2022-10-26T10:15:19.779Z,3.80
2022-10-26T10:16:19.754Z,3.80
2022-10-26T10:17:19.763Z,3.80
2022-10-26T10:18:19.735Z,4.00
2022-10-26T10:19:19.728Z,3.70
2022-10-26T10:20:19.731Z,3.60
2022-10-26T10:21:19.705Z,4.30
2022-10-26T10:22:19.689Z,5.80
2022-10-26T10:23:19.685Z,5.80
2022-10-26T10:24:19.672Z,5.40
2022-10-26T10:25:19.745Z,5.10
2022-10-26T10:26:19.649Z,4.30
2022-10-26T10:27:19.657Z,3.80
2022-10-26T10:29:19.625Z,3.80
2022-10-26T10:30:19.634Z,3.50
2022-10-26T10:31:19.608Z,3.50
2022-10-26T10:32:19.595Z,3.50
2022-10-26T10:33:19.580Z,3.90
2022-10-26T10:34:19.565Z,3.30
2022-10-26T10:35:19.583Z,3.40
2022-10-26T10:36:19.548Z,3.40
2022-10-26T10:37:19.544Z,2.90
2022-10-26T10:38:19.526Z,3.10
2022-10-26T10:39:19.551Z,3.20
2022-10-26T10:40:19.587Z,3.20
2022-10-26T10:41:19.516Z,3.30
2022-10-26T10:42:19.481Z,3.20
2022-10-26T10:43:19.485Z,3.20
2022-10-26T10:44:19.474Z,3.10
2022-10-26T10:45:19.466Z,3.30
2022-10-26T10:46:19.474Z,3.30
2022-10-26T10:47:19.459Z,3.60
2022-10-26T10:48:19.434Z,3.70
2022-10-26T10:49:19.430Z,4.20
2022-10-26T10:50:19.417Z,4.00
2022-10-26T10:51:19.420Z,3.70
2022-10-26T10:52:19.390Z,3.90
2022-10-26T10:53:19.429Z,3.70
2022-10-26T10:54:19.382Z,3.80
2022-10-26T10:55:19.371Z,4.10
2022-10-26T10:56:20.127Z,3.70
2022-10-26T10:57:19.347Z,3.50
2022-10-26T10:58:19.338Z,4.00
2022-10-26T10:59:19.346Z,3.70
2022-10-26T11:00:19.326Z,3.50
2022-10-26T11:01:19.399Z,3.90
2022-10-26T11:02:19.451Z,3.80
2022-10-26T11:03:23.329Z,3.80
2022-10-26T11:04:21.287Z,3.60
2022-10-26T11:05:22.062Z,3.70
2022-10-26T11:06:20.273Z,3.40
2022-10-26T11:07:19.243Z,3.50
2022-10-26T11:08:19.236Z,3.60
2022-10-26T11:09:19.227Z,3.30
2022-10-26T11:10:19.210Z,3.40
2022-10-26T11:11:19.219Z,3.40
2022-10-26T11:12:19.200Z,3.60
2022-10-26T11:13:19.184Z,3.70
2022-10-26T11:14:19.166Z,3.40
2022-10-26T11:15:19.168Z,3.80
2022-10-26T11:16:19.177Z,3.50
2022-10-26T11:17:19.134Z,3.40
2022-10-26T11:18:19.136Z,3.30
2022-10-26T11:19:19.127Z,3.70
2022-10-26T11:20:19.116Z,3.40
2022-10-26T11:21:19.106Z,3.30
2022-10-26T11:22:19.095Z,3.30
2022-10-26T11:23:19.071Z,3.20
2022-10-26T11:24:20.077Z,3.00
2022-10-26T11:25:19.065Z,3.50
2022-10-26T11:26:19.065Z,3.20
2022-10-26T11:27:19.039Z,3.10
2022-10-26T11:28:19.027Z,3.00
2022-10-26T11:29:19.030Z,2.90
2022-10-26T11:30:19.013Z,2.90
2022-10-26T11:31:19.018Z,3.00
2022-10-26T11:32:18.991Z,3.00
2022-10-26T11:33:18.982Z,2.70
2022-10-26T11:34:18.976Z,2.80
2022-10-26T11:35:18.960Z,2.80
2022-10-26T11:36:21.187Z,3.00
2022-10-26T11:37:18.944Z,2.70
2022-10-26T11:38:27.942Z,2.90
2022-10-26T11:39:19.914Z,3.00
2022-10-26T11:40:18.905Z,2.80
2022-10-26T11:41:18.909Z,3.00
2022-10-26T11:42:18.887Z,3.10
2022-10-26T11:43:18.905Z,2.90
2022-10-26T11:44:18.867Z,2.90
2022-10-26T11:45:18.859Z,3.10
2022-10-26T11:46:19.337Z,2.90
2022-10-26T11:47:18.831Z,2.90
2022-10-26T11:48:18.839Z,2.90
2022-10-26T11:49:18.813Z,2.60
2022-10-26T11:50:18.866Z,2.70
2022-10-26T11:51:18.852Z,2.80
2022-10-26T11:52:18.787Z,3.40
2022-10-26T11:53:18.755Z,2.70
2022-10-26T11:54:18.786Z,2.90
2022-10-26T11:55:18.749Z,3.10
2022-10-26T11:56:18.757Z,2.80
2022-10-26T11:57:18.715Z,2.90
2022-10-26T11:58:18.720Z,2.90
2022-10-26T11:59:18.708Z,3.10
2022-10-26T12:00:18.695Z,3.30
2022-10-26T12:01:18.764Z,3.50
2022-10-26T12:02:18.666Z,4.20
2022-10-26T12:03:18.659Z,3.60
2022-10-26T12:04:18.652Z,3.40
2022-10-26T12:05:18.643Z,3.00
2022-10-26T12:06:18.653Z,3.40
2022-10-26T12:07:18.627Z,3.20
2022-10-26T12:08:18.613Z,3.30
2022-10-26T12:09:18.593Z,3.40
2022-10-26T12:10:22.981Z,3.60
2022-10-26T12:11:20.587Z,3.40
2022-10-26T12:12:18.630Z,3.60
2022-10-26T12:13:18.567Z,3.20
2022-10-26T12:14:18.559Z,3.30
2022-10-26T12:15:18.554Z,3.10
2022-10-26T12:16:18.550Z,3.20
2022-10-26T12:17:18.523Z,3.30
2022-10-26T12:18:23.396Z,3.60
2022-10-26T12:19:20.565Z,3.40
2022-10-26T12:20:18.531Z,3.40
2022-10-26T12:21:18.489Z,3.50
2022-10-26T12:22:18.485Z,3.60
2022-10-26T12:23:28.108Z,3.50
2022-10-26T12:24:20.471Z,3.60
2022-10-26T12:25:18.442Z,3.50
2022-10-26T12:26:18.455Z,3.70
2022-10-26T12:27:18.431Z,3.80
2022-10-26T12:28:18.422Z,3.50
2022-10-26T12:29:18.403Z,3.60
2022-10-26T12:30:18.398Z,3.50
2022-10-26T12:31:18.473Z,3.70
2022-10-26T12:32:18.376Z,3.60
2022-10-26T12:33:18.357Z,3.90
2022-10-26T12:34:18.361Z,3.80
2022-10-26T12:35:18.338Z,4.10
2022-10-26T12:36:18.354Z,3.90
2022-10-26T12:37:18.313Z,4.00
2022-10-26T12:38:18.311Z,3.60
2022-10-26T12:39:18.306Z,3.70
2022-10-26T12:40:18.290Z,3.80
2022-10-26T12:41:18.301Z,3.80
2022-10-26T12:42:18.272Z,3.70
2022-10-26T12:43:18.264Z,3.30
2022-10-26T12:44:18.262Z,3.50
2022-10-26T12:45:18.241Z,3.50
2022-10-26T12:46:18.254Z,3.40
2022-10-26T12:47:18.221Z,3.60
2022-10-26T12:48:27.524Z,3.50
2022-10-26T12:49:20.187Z,3.40
2022-10-26T12:50:18.186Z,3.30
2022-10-26T12:51:18.202Z,3.40
2022-10-26T12:52:18.169Z,3.30
2022-10-26T12:53:18.143Z,3.20
2022-10-26T12:54:18.146Z,3.30
2022-10-26T12:55:18.137Z,3.40
2022-10-26T12:56:18.146Z,3.20
2022-10-26T12:57:18.116Z,3.20
2022-10-26T12:58:18.115Z,3.30
2022-10-26T12:59:18.092Z,3.30
2022-10-26T13:00:18.165Z,3.10
2022-10-26T13:01:18.140Z,3.10
2022-10-26T13:02:18.067Z,3.00
2022-10-26T13:03:18.049Z,2.90
2022-10-26T13:04:18.048Z,3.00
2022-10-26T13:05:18.032Z,3.30
2022-10-26T13:06:18.041Z,2.90
2022-10-26T13:07:18.013Z,3.20
2022-10-26T13:08:18.002Z,2.80
2022-10-26T13:09:20.090Z,3.10
2022-10-26T13:10:17.982Z,3.00
2022-10-26T13:11:17.992Z,3.20
2022-10-26T13:12:17.958Z,3.10
2022-10-26T13:13:17.947Z,2.60
2022-10-26T13:14:17.942Z,3.00
2022-10-26T13:15:17.940Z,2.90
2022-10-26T13:16:17.932Z,3.20
2022-10-26T13:17:17.901Z,3.10
2022-10-26T13:18:17.905Z,3.20